Detall de PIREP

Printer-friendly versionPDF version

[2014/01/08 16:12:00]
Flight IATA:CT2105
Pilot Number:041
Company ICAO:CAT
Aircraft Type:F70/E
PAX:71
Aircraft Registration:DA
Departing Airport: LEBB
Destination Airport: LEVC
Alternate Airport:LEBL
Online: VATSIM
Route:PPN G23 GRAUS A34 SAURA
Flight Level:FL200
No Slew and time accel
No pause
Crash detect
Detect pilot in Cockpit between each 30 and 45 minutes
16:12 Zero fuel Weight: 73796 Lbs, Fuel Weight: 9717 Lbs
16:12 VATSIM:LEBB 081600Z 20005KT 150V270 CAVOK 21/01 Q1016 NOSIG
16:12 VATSIM:LEVC 081600Z 08005KT 040V110 9000 FEW025 14/10 Q1023 NOSIG
16:12 VOICE CATALONIAN
16:24 Parking Brakes off
16:34 Take-off
16:34 Take off Weight: 82909 Lbs
16:34 Wind: 074º @ 005 Knots Heading: 277º
16:34 POS N43º 18´ 10´´ W002º 56´ 02´´
16:35 Gear Up: 157 Knots
16:44 TOC
16:44 Fuel Weight: 7783 Lb
16:50 Wind:229º@045 Knots Heading: 151º Ground Speed: 357 Knots Altitude 20114 ft
17:05 Wind:220º@049 Knots Heading: 123º Ground Speed: 372 Knots Altitude 20229 ft
17:20 Wind:225º@043 Knots Heading: 200º Ground Speed: 325 Knots Altitude 20305 ft
17:31 TOD
17:31 Fuel Weight: 3897 Lb
17:35 Wind:221º@030 Knots Heading: 270º Ground Speed: 293 Knots Altitude 12057 ft
17:40 Flaps:1 at 257 Knots
17:41 Flaps:2 at 227 Knots
17:41 Gear Down: 191 Knots
17:41 Flaps:3 at 185 Knots
17:42 Flaps:4 at 147 Knots
17:42 Flaps:3 at 143 Knots
17:42 Flaps:4 at 141 Knots
17:44 TouchDown:Rate -163 ft/min Speed: 113 Knots
17:45 VATSIM:LEVC 081730Z 08004KT 010V100 9999 FEW025 12/10 Q1023 NOSIG
17:45 Land
17:45 Wind:064º@003 Knots
17:45 Heading: 116º
17:45 Flight Duration: 01:10
17:45 Landing Weight: 77091 Lbs
17:45 POS N39º 29´ 38´´ W000º 29´ 40´´
17:48 Parking brakes on
17:48 Block to Block Duration: 01:24
17:48 Final Fuel: 3170 Lbls
17:48 Spent Fuel: 6547 Lbls
17:48 Flight Length: 378 NM
17:48 TOD Land Length: 54 NM

Exportar CSV

Powered by Drupal - Modified by Danger4k